createdAt,value
2022-09-28T00:00:55.531Z,100.00
2022-09-28T00:02:58.372Z,100.00
2022-09-28T00:05:01.046Z,100.00
2022-09-28T00:07:03.657Z,100.00
2022-09-28T00:09:07.670Z,100.00
2022-09-28T00:11:15.207Z,100.00
2022-09-28T00:13:17.842Z,100.00
2022-09-28T00:15:20.408Z,100.00
2022-09-28T00:17:23.846Z,100.00
2022-09-28T00:19:26.588Z,100.00
2022-09-28T00:21:31.481Z,100.00
2022-09-28T00:23:34.309Z,100.00
2022-09-28T00:25:38.257Z,100.00
2022-09-28T00:27:41.192Z,100.00
2022-09-28T00:29:43.831Z,100.00
2022-09-28T00:31:46.473Z,100.00
2022-09-28T00:33:51.526Z,100.00
2022-09-28T00:36:00.209Z,100.00
2022-09-28T00:38:03.822Z,100.00
2022-09-28T00:40:07.655Z,100.00
2022-09-28T00:42:15.421Z,100.00
2022-09-28T00:44:40.868Z,100.00
2022-09-28T00:46:43.541Z,100.00
2022-09-28T00:48:53.976Z,100.00
2022-09-28T00:50:57.563Z,100.00
2022-09-28T00:53:06.255Z,100.00
2022-09-28T00:55:12.290Z,100.00
2022-09-28T00:57:17.004Z,100.00
2022-09-28T00:59:19.734Z,100.00
2022-09-28T01:01:22.611Z,100.00
2022-09-28T01:03:25.868Z,100.00
2022-09-28T01:05:28.719Z,100.00
2022-09-28T01:07:33.241Z,100.00
2022-09-28T01:09:39.770Z,100.00
2022-09-28T01:11:43.920Z,100.00
2022-09-28T01:13:51.214Z,100.00
2022-09-28T01:16:02.192Z,100.00
2022-09-28T01:18:14.201Z,100.00
2022-09-28T01:20:40.182Z,100.00
2022-09-28T01:23:13.319Z,100.00
2022-09-28T01:25:25.888Z,100.00
2022-09-28T01:27:34.125Z,100.00
2022-09-28T01:29:45.263Z,100.00
2022-09-28T01:31:53.756Z,100.00
2022-09-28T01:34:01.978Z,100.00
2022-09-28T01:36:11.258Z,100.00
2022-09-28T01:38:18.620Z,100.00
2022-09-28T01:40:23.488Z,100.00
2022-09-28T01:42:32.929Z,100.00
2022-09-28T01:44:40.049Z,100.00
2022-09-28T01:46:45.240Z,100.00
2022-09-28T01:48:52.478Z,100.00
2022-09-28T01:50:57.933Z,100.00
2022-09-28T01:53:05.042Z,100.00
2022-09-28T01:55:12.864Z,100.00
2022-09-28T01:57:19.305Z,100.00
2022-09-28T01:59:26.346Z,100.00
2022-09-28T02:01:34.751Z,100.00
2022-09-28T02:03:42.242Z,100.00
2022-09-28T02:05:50.261Z,100.00
2022-09-28T02:08:00.567Z,100.00
2022-09-28T02:10:09.624Z,100.00
2022-09-28T02:12:17.164Z,100.00
2022-09-28T02:14:20.832Z,100.00
2022-09-28T02:16:33.326Z,100.00
2022-09-28T02:18:36.281Z,100.00
2022-09-28T02:20:42.405Z,100.00
2022-09-28T02:22:48.877Z,100.00
2022-09-28T02:24:56.459Z,100.00
2022-09-28T02:27:04.053Z,100.00
2022-09-28T02:29:06.742Z,100.00
2022-09-28T02:31:09.396Z,100.00
2022-09-28T02:33:18.487Z,100.00
2022-09-28T02:35:21.811Z,100.00
2022-09-28T02:37:24.573Z,100.00
2022-09-28T02:39:27.608Z,100.00
2022-09-28T02:41:46.600Z,100.00
2022-09-28T02:43:58.176Z,100.00
2022-09-28T02:46:09.987Z,100.00
2022-09-28T02:48:42.700Z,100.00
2022-09-28T02:50:57.595Z,100.00
2022-09-28T02:53:25.531Z,100.00
2022-09-28T02:55:43.497Z,100.00
2022-09-28T02:58:09.680Z,100.00
2022-09-28T03:00:18.606Z,100.00
2022-09-28T03:02:28.887Z,100.00
2022-09-28T03:04:40.795Z,100.00
2022-09-28T03:06:49.571Z,100.00
2022-09-28T03:09:00.049Z,100.00
2022-09-28T03:11:05.441Z,100.00
2022-09-28T03:13:08.943Z,100.00
2022-09-28T03:15:14.738Z,100.00
2022-09-28T03:17:17.367Z,100.00
2022-09-28T03:19:23.800Z,100.00
2022-09-28T03:21:27.811Z,100.00
2022-09-28T03:23:30.430Z,100.00
2022-09-28T03:25:33.024Z,100.00
2022-09-28T03:27:35.617Z,100.00
2022-09-28T03:29:38.535Z,100.00
2022-09-28T03:31:41.224Z,100.00
2022-09-28T03:33:43.853Z,100.00
2022-09-28T03:35:47.906Z,100.00
2022-09-28T03:37:55.744Z,100.00
2022-09-28T03:39:58.512Z,100.00
2022-09-28T03:42:01.544Z,100.00
2022-09-28T03:44:04.474Z,100.00
2022-09-28T03:46:07.310Z,100.00
2022-09-28T03:48:09.989Z,100.00
2022-09-28T03:50:12.572Z,100.00
2022-09-28T03:52:16.232Z,100.00
2022-09-28T03:54:20.227Z,100.00
2022-09-28T03:56:22.863Z,100.00
2022-09-28T03:58:25.477Z,100.00
2022-09-28T04:00:28.116Z,100.00
2022-09-28T04:02:30.906Z,100.00
2022-09-28T04:04:33.649Z,100.00
2022-09-28T04:06:36.241Z,100.00
2022-09-28T04:08:38.823Z,100.00
2022-09-28T04:10:42.799Z,100.00
2022-09-28T04:12:45.912Z,100.00
2022-09-28T04:14:48.552Z,100.00
2022-09-28T04:16:54.214Z,100.00
2022-09-28T04:18:58.473Z,100.00
2022-09-28T04:21:03.566Z,100.00
2022-09-28T04:23:06.181Z,100.00
2022-09-28T04:25:09.586Z,100.00
2022-09-28T04:27:31.011Z,100.00
2022-09-28T04:29:33.633Z,100.00
2022-09-28T04:31:41.764Z,100.00
2022-09-28T04:33:44.546Z,100.00
2022-09-28T04:35:47.206Z,100.00
2022-09-28T04:37:49.828Z,100.00
2022-09-28T04:39:52.525Z,100.00
2022-09-28T04:41:55.112Z,100.00
2022-09-28T04:43:59.099Z,100.00
2022-09-28T04:46:02.942Z,100.00
2022-09-28T04:48:07.479Z,100.00
2022-09-28T04:50:10.486Z,100.00
2022-09-28T04:52:18.015Z,100.00
2022-09-28T04:54:21.016Z,100.00
2022-09-28T04:56:23.692Z,100.00
2022-09-28T04:58:27.209Z,100.00
2022-09-28T05:00:35.203Z,100.00
2022-09-28T05:02:37.817Z,100.00
2022-09-28T05:04:40.907Z,100.00
2022-09-28T05:06:43.515Z,100.00
2022-09-28T05:08:47.109Z,100.00
2022-09-28T05:10:49.873Z,100.00
2022-09-28T05:12:52.541Z,100.00
2022-09-28T05:14:56.444Z,100.00
2022-09-28T05:17:00.436Z,100.00
2022-09-28T05:19:03.069Z,100.00
2022-09-28T05:21:10.628Z,100.00
2022-09-28T05:23:15.366Z,100.00
2022-09-28T05:25:17.980Z,100.00
2022-09-28T05:27:20.589Z,100.00
2022-09-28T05:29:23.212Z,100.00
2022-09-28T05:31:27.167Z,100.00
2022-09-28T05:33:32.013Z,100.00
2022-09-28T05:35:34.703Z,100.00
2022-09-28T05:37:37.483Z,100.00
2022-09-28T05:39:40.368Z,100.00
2022-09-28T05:41:42.942Z,100.00
2022-09-28T05:43:46.067Z,100.00
2022-09-28T05:45:53.019Z,100.00
2022-09-28T05:47:58.247Z,100.00
2022-09-28T05:50:02.260Z,100.00
2022-09-28T05:52:04.832Z,100.00
2022-09-28T05:54:07.444Z,100.00
2022-09-28T05:56:10.035Z,100.00
2022-09-28T05:58:12.678Z,100.00
2022-09-28T06:00:15.626Z,100.00
2022-09-28T06:02:18.444Z,100.00
2022-09-28T06:04:21.118Z,100.00
2022-09-28T06:06:25.136Z,100.00
2022-09-28T06:08:27.708Z,100.00
2022-09-28T06:10:30.362Z,100.00
2022-09-28T06:12:35.064Z,100.00
2022-09-28T06:14:38.817Z,100.00
2022-09-28T06:16:56.850Z,100.00
2022-09-28T06:18:59.474Z,100.00
2022-09-28T06:21:02.543Z,100.00
2022-09-28T06:23:06.609Z,100.00
2022-09-28T06:25:10.461Z,100.00
2022-09-28T06:27:13.058Z,100.00
2022-09-28T06:29:19.851Z,100.00
2022-09-28T06:31:23.779Z,100.00
2022-09-28T06:33:26.720Z,100.00
2022-09-28T06:35:31.207Z,100.00
2022-09-28T06:37:33.888Z,100.00
2022-09-28T06:39:37.910Z,100.00
2022-09-28T06:41:40.908Z,100.00
2022-09-28T06:43:43.558Z,100.00
2022-09-28T06:45:52.446Z,100.00
2022-09-28T06:47:57.493Z,100.00
2022-09-28T06:50:00.107Z,100.00
2022-09-28T06:52:02.876Z,100.00
2022-09-28T06:54:06.113Z,100.00
2022-09-28T06:56:12.209Z,100.00
2022-09-28T06:58:17.254Z,100.00
2022-09-28T07:00:20.131Z,100.00
2022-09-28T07:02:23.523Z,100.00
2022-09-28T07:04:26.277Z,100.00
2022-09-28T07:06:31.442Z,100.00
2022-09-28T07:08:34.006Z,100.00
2022-09-28T07:10:36.718Z,100.00
2022-09-28T07:12:40.781Z,100.00
2022-09-28T07:14:47.893Z,100.00
2022-09-28T07:17:11.833Z,100.00
2022-09-28T07:19:14.486Z,100.00
2022-09-28T07:21:28.189Z,100.00
2022-09-28T07:23:34.619Z,100.00
2022-09-28T07:25:45.435Z,100.00
2022-09-28T07:27:49.504Z,100.00
2022-09-28T07:29:53.113Z,100.00
2022-09-28T07:31:55.735Z,100.00
2022-09-28T07:33:58.689Z,100.00
2022-09-28T07:36:06.364Z,100.00
2022-09-28T07:38:09.667Z,100.00
2022-09-28T07:40:29.752Z,100.00
2022-09-28T07:42:32.461Z,100.00
2022-09-28T07:44:38.963Z,100.00
2022-09-28T07:46:44.197Z,100.00
2022-09-28T07:48:46.890Z,100.00
2022-09-28T07:50:51.653Z,100.00
2022-09-28T07:52:54.341Z,100.00
2022-09-28T07:54:57.029Z,100.00
2022-09-28T07:56:59.704Z,100.00
2022-09-28T07:59:02.449Z,100.00
2022-09-28T08:01:10.291Z,100.00
2022-09-28T08:03:12.980Z,100.00
2022-09-28T08:05:15.660Z,100.00
2022-09-28T08:07:23.470Z,100.00
2022-09-28T08:09:26.596Z,100.00
2022-09-28T08:11:29.205Z,100.00
2022-09-28T08:13:31.882Z,100.00
2022-09-28T08:15:36.827Z,100.00
2022-09-28T08:17:40.815Z,100.00
2022-09-28T08:20:00.034Z,100.00
2022-09-28T08:22:02.666Z,100.00
2022-09-28T08:24:05.735Z,100.00
2022-09-28T08:26:13.277Z,100.00
2022-09-28T08:28:18.664Z,100.00
2022-09-28T08:30:21.367Z,100.00
2022-09-28T08:32:24.616Z,100.00
2022-09-28T08:34:28.894Z,100.00
2022-09-28T08:36:31.524Z,100.00
2022-09-28T08:38:34.176Z,100.00
2022-09-28T08:40:49.388Z,100.00
2022-09-28T08:42:56.221Z,100.00
2022-09-28T08:45:00.052Z,100.00
2022-09-28T08:47:07.229Z,100.00
2022-09-28T08:49:24.854Z,100.00
2022-09-28T08:51:33.890Z,100.00
2022-09-28T08:53:44.257Z,100.00
2022-09-28T08:55:47.507Z,100.00
2022-09-28T08:57:57.403Z,100.00
2022-09-28T09:00:04.731Z,100.00
2022-09-28T09:02:16.007Z,100.00
2022-09-28T09:04:19.101Z,100.00
2022-09-28T09:06:29.990Z,100.00
2022-09-28T09:08:46.047Z,100.00
2022-09-28T09:10:51.960Z,100.00
2022-09-28T09:13:04.427Z,100.00
2022-09-28T09:15:22.720Z,100.00
2022-09-28T09:17:39.176Z,100.00
2022-09-28T09:19:51.496Z,100.00
2022-09-28T09:22:01.578Z,100.00
2022-09-28T09:24:21.469Z,100.00
2022-09-28T09:26:37.105Z,100.00
2022-09-28T09:28:59.366Z,100.00
2022-09-28T09:31:12.302Z,100.00
2022-09-28T09:33:40.942Z,100.00
2022-09-28T09:36:11.658Z,100.00
2022-09-28T09:38:33.656Z,100.00
2022-09-28T09:40:53.068Z,100.00
2022-09-28T09:43:19.608Z,100.00
2022-09-28T09:45:43.039Z,100.00
2022-09-28T09:47:51.537Z,100.00
2022-09-28T09:50:05.435Z,100.00
2022-09-28T09:52:19.675Z,100.00
2022-09-28T09:54:28.685Z,100.00
2022-09-28T09:56:38.511Z,100.00
2022-09-28T09:58:47.945Z,100.00
2022-09-28T10:00:53.601Z,100.00
2022-09-28T10:03:00.123Z,100.00
2022-09-28T10:05:07.822Z,100.00
2022-09-28T10:07:19.767Z,100.00
2022-09-28T10:09:27.168Z,100.00
2022-09-28T10:11:36.055Z,100.00
2022-09-28T10:13:40.316Z,100.00
2022-09-28T10:15:43.561Z,100.00
2022-09-28T10:17:46.407Z,100.00
2022-09-28T10:19:49.063Z,100.00
2022-09-28T10:21:51.981Z,100.00
2022-09-28T10:23:58.306Z,100.00
2022-09-28T10:26:05.038Z,100.00
2022-09-28T10:28:08.610Z,100.00
2022-09-28T10:30:18.819Z,100.00
2022-09-28T10:32:24.327Z,100.00
2022-09-28T10:34:28.729Z,100.00
2022-09-28T10:36:38.183Z,100.00
2022-09-28T10:38:48.544Z,100.00
2022-09-28T10:40:54.254Z,100.00
2022-09-28T10:43:09.173Z,100.00
2022-09-28T10:45:22.222Z,100.00
2022-09-28T10:47:27.355Z,100.00
2022-09-28T10:49:33.338Z,100.00
2022-09-28T10:51:43.450Z,100.00
2022-09-28T10:53:59.918Z,100.00
2022-09-28T10:56:05.551Z,100.00
2022-09-28T10:58:27.842Z,100.00
2022-09-28T11:00:36.016Z,100.00
2022-09-28T11:06:51.449Z,100.00
2022-09-28T11:08:55.767Z,100.00
2022-09-28T11:11:04.603Z,100.00
2022-09-28T11:13:10.474Z,100.00
2022-09-28T11:15:19.926Z,100.00
2022-09-28T11:17:29.964Z,100.00
2022-09-28T11:19:32.671Z,100.00
2022-09-28T11:21:43.121Z,100.00
2022-09-28T11:23:58.289Z,100.00
2022-09-28T11:26:05.689Z,100.00
2022-09-28T11:28:20.713Z,97.29
2022-09-28T11:30:25.683Z,96.71
2022-09-28T11:32:40.605Z,94.58
2022-09-28T11:34:59.311Z,96.43
2022-09-28T11:37:17.524Z,93.23
2022-09-28T11:39:30.439Z,91.00
2022-09-28T11:41:52.486Z,94.25
2022-09-28T11:44:14.421Z,91.82
2022-09-28T11:46:26.482Z,94.42
2022-09-28T11:48:40.410Z,88.69
2022-09-28T11:50:48.554Z,89.85
2022-09-28T11:52:58.533Z,91.19
2022-09-28T11:55:07.429Z,88.35
2022-09-28T11:57:17.244Z,90.32
2022-09-28T11:59:33.332Z,88.36
2022-09-28T12:01:41.318Z,86.92
2022-09-28T12:03:51.564Z,87.48
2022-09-28T12:06:00.567Z,88.76
2022-09-28T12:08:08.839Z,87.96
2022-09-28T12:10:18.935Z,87.12
2022-09-28T12:12:26.670Z,88.42
2022-09-28T12:14:34.229Z,89.15
2022-09-28T12:19:16.502Z,86.21
2022-09-28T12:21:34.601Z,83.91
2022-09-28T12:23:41.299Z,84.22
2022-09-28T12:25:50.471Z,82.36
2022-09-28T12:27:57.528Z,81.77
2022-09-28T12:30:06.180Z,82.68
2022-09-28T12:32:15.330Z,80.81
2022-09-28T12:34:19.348Z,78.83
2022-09-28T12:36:32.463Z,79.81
2022-09-28T12:38:54.060Z,77.41
2022-09-28T12:41:05.731Z,76.94
2022-09-28T12:43:48.092Z,75.54
2022-09-28T12:46:14.161Z,77.60
2022-09-28T12:48:36.986Z,78.93
2022-09-28T12:50:56.703Z,79.87
2022-09-28T12:53:27.234Z,78.68
2022-09-28T12:55:51.319Z,78.64
2022-09-28T12:58:00.563Z,78.06
2022-09-28T13:00:06.785Z,78.91
2022-09-28T13:02:31.511Z,77.93
2022-09-28T13:05:00.138Z,78.62
2022-09-28T13:07:07.535Z,77.39
2022-09-28T13:09:19.909Z,76.54
2022-09-28T13:11:31.855Z,76.99
2022-09-28T13:13:47.764Z,77.80
2022-09-28T13:15:58.744Z,76.84
2022-09-28T13:18:18.202Z,77.02
2022-09-28T13:20:32.160Z,77.66
2022-09-28T13:22:50.461Z,77.65
2022-09-28T13:24:56.777Z,76.07
2022-09-28T13:27:06.906Z,74.50
2022-09-28T13:29:14.247Z,75.43
2022-09-28T13:31:21.907Z,75.95
2022-09-28T13:33:33.687Z,75.13
2022-09-28T13:35:36.301Z,75.31
2022-09-28T13:37:40.622Z,75.67
2022-09-28T13:39:52.667Z,74.73
2022-09-28T13:41:55.960Z,72.52
2022-09-28T13:44:39.622Z,73.36
2022-09-28T13:46:52.493Z,73.82
2022-09-28T13:49:09.700Z,73.91
2022-09-28T13:51:40.932Z,74.05
2022-09-28T13:54:07.792Z,74.25
2022-09-28T13:56:25.499Z,73.13
2022-09-28T13:58:33.471Z,70.08
2022-09-28T14:00:45.735Z,69.58
2022-09-28T14:02:52.894Z,72.06
2022-09-28T14:04:58.831Z,70.72
2022-09-28T14:07:11.774Z,72.43
2022-09-28T14:09:28.575Z,70.50
2022-09-28T14:11:55.911Z,72.81
2022-09-28T14:14:03.186Z,70.73
2022-09-28T14:16:22.224Z,74.96
2022-09-28T14:18:31.209Z,73.06
2022-09-28T14:20:36.378Z,73.47
2022-09-28T14:22:55.136Z,71.43
2022-09-28T14:25:08.797Z,71.52
2022-09-28T14:27:28.845Z,69.94
2022-09-28T14:29:33.475Z,70.13
2022-09-28T14:31:43.288Z,73.74
2022-09-28T14:33:56.873Z,73.63
2022-09-28T14:36:02.272Z,73.12
2022-09-28T14:38:36.559Z,72.49
2022-09-28T14:41:10.890Z,74.20
2022-09-28T14:43:27.085Z,73.14
2022-09-28T14:45:38.335Z,72.88
2022-09-28T14:47:43.812Z,72.91
2022-09-28T14:50:01.707Z,74.44
2022-09-28T14:52:04.802Z,73.51
2022-09-28T14:54:17.058Z,76.37
2022-09-28T14:56:22.098Z,74.63
2022-09-28T14:58:27.513Z,75.37
2022-09-28T15:00:31.665Z,74.10
2022-09-28T15:02:38.499Z,75.88
2022-09-28T15:04:43.521Z,74.71
2022-09-28T15:06:48.216Z,76.08
2022-09-28T15:08:51.256Z,75.50
2022-09-28T15:10:53.906Z,75.48
2022-09-28T15:12:58.444Z,76.18
2022-09-28T15:15:03.566Z,76.45
2022-09-28T15:17:10.891Z,75.35
2022-09-28T15:19:29.229Z,74.58
2022-09-28T15:21:36.756Z,75.67
2022-09-28T15:23:41.309Z,75.23
2022-09-28T15:25:52.671Z,77.28
2022-09-28T15:27:56.935Z,73.62
2022-09-28T15:30:02.613Z,75.76
2022-09-28T15:32:05.333Z,76.64
2022-09-28T15:34:44.181Z,75.42
2022-09-28T15:36:47.607Z,76.14
2022-09-28T15:38:57.360Z,76.47
2022-09-28T15:41:02.755Z,77.42
2022-09-28T15:43:23.535Z,77.43
2022-09-28T15:45:32.748Z,78.63
2022-09-28T15:47:38.701Z,79.28
2022-09-28T15:49:45.990Z,77.62
2022-09-28T15:51:53.683Z,78.60
2022-09-28T15:54:00.164Z,79.24
2022-09-28T15:56:09.984Z,79.43
2022-09-28T15:58:18.679Z,81.68
2022-09-28T16:00:29.167Z,80.21
2022-09-28T16:02:31.959Z,81.07
2022-09-28T16:04:38.194Z,80.61
2022-09-28T16:06:41.937Z,82.64
2022-09-28T16:08:45.841Z,82.26
2022-09-28T16:10:58.811Z,84.11
2022-09-28T16:13:15.438Z,84.04
2022-09-28T16:15:22.686Z,83.75
2022-09-28T16:17:32.289Z,84.97
2022-09-28T16:19:39.251Z,84.68
2022-09-28T16:21:46.397Z,86.45
2022-09-28T16:23:52.979Z,87.70
2022-09-28T16:25:59.723Z,87.83
2022-09-28T16:28:02.293Z,86.52
2022-09-28T16:30:17.078Z,88.68
2022-09-28T16:32:41.545Z,88.31
2022-09-28T16:34:44.158Z,90.31
2022-09-28T16:36:49.556Z,89.39
2022-09-28T16:38:54.281Z,90.69
2022-09-28T16:40:59.334Z,91.09
2022-09-28T16:43:05.301Z,91.49
2022-09-28T16:45:15.296Z,91.23
2022-09-28T16:47:17.979Z,92.61
2022-09-28T16:49:23.827Z,93.42
2022-09-28T16:51:26.734Z,94.38
2022-09-28T16:53:46.820Z,96.44
2022-09-28T16:55:50.671Z,96.13
2022-09-28T16:57:53.303Z,96.90
2022-09-28T16:59:55.891Z,98.27
2022-09-28T17:01:59.181Z,98.59
2022-09-28T17:04:02.382Z,100.00
2022-09-28T17:06:07.362Z,100.00
2022-09-28T17:08:14.659Z,99.86
2022-09-28T17:10:19.209Z,100.00
2022-09-28T17:12:24.384Z,100.00
2022-09-28T17:14:27.070Z,100.00
2022-09-28T17:16:59.887Z,100.00
2022-09-28T17:18:55.611Z,100.00
2022-09-28T17:20:59.392Z,100.00
2022-09-28T17:23:03.398Z,100.00
2022-09-28T17:25:09.052Z,100.00
2022-09-28T17:27:20.907Z,100.00
2022-09-28T17:29:23.868Z,100.00
2022-09-28T17:31:27.383Z,100.00
2022-09-28T17:33:30.267Z,100.00
2022-09-28T17:35:36.186Z,100.00
2022-09-28T17:37:42.044Z,100.00
2022-09-28T17:39:46.017Z,100.00
2022-09-28T17:41:48.668Z,100.00
2022-09-28T17:43:51.271Z,100.00
2022-09-28T17:45:54.058Z,100.00
2022-09-28T17:47:57.366Z,100.00
2022-09-28T17:49:59.969Z,100.00
2022-09-28T17:52:04.014Z,100.00
2022-09-28T17:54:08.520Z,100.00
2022-09-28T17:56:12.570Z,100.00
2022-09-28T17:58:18.080Z,100.00
2022-09-28T18:00:20.788Z,100.00
2022-09-28T18:02:25.072Z,100.00
2022-09-28T18:04:50.833Z,100.00
2022-09-28T18:06:50.941Z,100.00
2022-09-28T18:08:53.577Z,100.00
2022-09-28T18:10:56.705Z,100.00
2022-09-28T18:13:00.703Z,100.00
2022-09-28T18:15:05.382Z,100.00
2022-09-28T18:17:08.172Z,100.00
2022-09-28T18:19:10.889Z,100.00
2022-09-28T18:21:13.956Z,100.00
2022-09-28T18:23:16.850Z,100.00
2022-09-28T18:25:19.648Z,100.00
2022-09-28T18:27:22.515Z,100.00
2022-09-28T18:29:29.904Z,100.00
2022-09-28T18:31:35.006Z,100.00
2022-09-28T18:33:37.730Z,100.00
2022-09-28T18:35:40.489Z,100.00
2022-09-28T18:37:43.430Z,100.00
2022-09-28T18:39:46.250Z,100.00
2022-09-28T18:41:49.053Z,100.00
2022-09-28T18:43:52.150Z,100.00
2022-09-28T18:45:56.320Z,100.00
2022-09-28T18:47:59.574Z,100.00
2022-09-28T18:50:02.236Z,100.00
2022-09-28T18:52:04.953Z,100.00
2022-09-28T18:54:07.621Z,100.00
2022-09-28T18:56:12.944Z,100.00
2022-09-28T18:58:15.620Z,100.00
2022-09-28T19:00:18.291Z,100.00
2022-09-28T19:02:22.369Z,100.00
2022-09-28T19:04:25.330Z,100.00
2022-09-28T19:06:28.501Z,100.00
2022-09-28T19:08:31.329Z,100.00
2022-09-28T19:10:33.988Z,100.00
2022-09-28T19:12:36.625Z,100.00
2022-09-28T19:14:39.264Z,100.00
2022-09-28T19:16:41.966Z,100.00
2022-09-28T19:18:46.327Z,100.00
2022-09-28T19:20:48.984Z,100.00
2022-09-28T19:22:51.656Z,100.00
2022-09-28T19:24:54.305Z,100.00
2022-09-28T19:26:57.220Z,100.00
2022-09-28T19:29:00.703Z,100.00
2022-09-28T19:31:05.898Z,100.00
2022-09-28T19:33:08.545Z,100.00
2022-09-28T19:35:12.588Z,100.00
2022-09-28T19:37:15.355Z,100.00
2022-09-28T19:39:18.193Z,100.00
2022-09-28T19:41:39.581Z,100.00
2022-09-28T19:43:44.861Z,100.00
2022-09-28T19:45:51.966Z,100.00
2022-09-28T19:47:59.247Z,100.00
2022-09-28T19:50:03.332Z,100.00
2022-09-28T19:52:15.010Z,100.00
2022-09-28T19:54:18.997Z,100.00
2022-09-28T19:56:22.320Z,100.00
2022-09-28T19:58:26.762Z,100.00
2022-09-28T20:00:29.409Z,100.00
2022-09-28T20:02:32.194Z,100.00
2022-09-28T20:04:35.466Z,100.00
2022-09-28T20:06:39.351Z,100.00
2022-09-28T20:08:44.787Z,100.00
2022-09-28T20:10:52.259Z,100.00
2022-09-28T20:12:54.847Z,100.00
2022-09-28T20:14:57.790Z,100.00
2022-09-28T20:17:00.419Z,100.00
2022-09-28T20:19:04.870Z,100.00
2022-09-28T20:21:09.461Z,100.00
2022-09-28T20:23:12.957Z,100.00
2022-09-28T20:25:17.008Z,100.00
2022-09-28T20:27:22.077Z,100.00
2022-09-28T20:29:28.121Z,100.00
2022-09-28T20:31:31.028Z,100.00
2022-09-28T20:33:35.257Z,100.00
2022-09-28T20:35:40.375Z,100.00
2022-09-28T20:37:43.180Z,100.00
2022-09-28T20:39:46.090Z,100.00
2022-09-28T20:41:50.120Z,100.00
2022-09-28T20:43:53.918Z,100.00
2022-09-28T20:45:56.940Z,100.00
2022-09-28T20:48:04.377Z,100.00
2022-09-28T20:50:08.373Z,100.00
2022-09-28T20:52:11.109Z,100.00
2022-09-28T20:54:13.762Z,100.00
2022-09-28T20:56:19.513Z,100.00
2022-09-28T20:58:23.500Z,100.00
2022-09-28T21:00:26.215Z,100.00
2022-09-28T21:02:28.849Z,100.00
2022-09-28T21:04:32.250Z,100.00
2022-09-28T21:06:36.842Z,100.00
2022-09-28T21:08:39.438Z,100.00
2022-09-28T21:10:44.903Z,100.00
2022-09-28T21:12:53.089Z,100.00
2022-09-28T21:14:57.051Z,100.00
2022-09-28T21:16:59.719Z,100.00
2022-09-28T21:19:02.710Z,100.00
2022-09-28T21:21:07.141Z,100.00
2022-09-28T21:23:09.776Z,100.00
2022-09-28T21:25:12.371Z,100.00
2022-09-28T21:27:14.998Z,100.00
2022-09-28T21:29:17.789Z,100.00
2022-09-28T21:31:26.226Z,100.00
2022-09-28T21:33:31.369Z,100.00
2022-09-28T21:35:35.155Z,100.00
2022-09-28T21:37:37.775Z,100.00
2022-09-28T21:39:40.480Z,100.00
2022-09-28T21:41:43.506Z,100.00
2022-09-28T21:43:46.917Z,100.00
2022-09-28T21:45:50.740Z,100.00
2022-09-28T21:47:55.420Z,100.00
2022-09-28T21:49:58.053Z,100.00
2022-09-28T21:52:02.047Z,100.00
2022-09-28T21:54:05.204Z,100.00
2022-09-28T21:56:10.802Z,100.00
2022-09-28T21:58:13.406Z,100.00
2022-09-28T22:00:17.291Z,100.00
2022-09-28T22:02:19.947Z,100.00
2022-09-28T22:04:24.029Z,100.00
2022-09-28T22:06:28.998Z,100.00
2022-09-28T22:08:31.644Z,100.00
2022-09-28T22:10:34.251Z,100.00
2022-09-28T22:12:36.938Z,100.00
2022-09-28T22:14:39.544Z,100.00
2022-09-28T22:16:42.187Z,100.00
2022-09-28T22:18:45.245Z,100.00
2022-09-28T22:20:49.291Z,100.00
2022-09-28T22:22:51.970Z,100.00
2022-09-28T22:24:54.967Z,100.00
2022-09-28T22:26:57.720Z,100.00
2022-09-28T22:29:02.163Z,100.00
2022-09-28T22:31:05.720Z,100.00
2022-09-28T22:33:08.424Z,100.00
2022-09-28T22:35:11.001Z,100.00
2022-09-28T22:37:15.120Z,100.00
2022-09-28T22:39:17.706Z,100.00
2022-09-28T22:41:21.405Z,100.00
2022-09-28T22:43:25.452Z,100.00
2022-09-28T22:45:28.065Z,100.00
2022-09-28T22:47:30.691Z,100.00
2022-09-28T22:49:33.312Z,100.00
2022-09-28T22:51:35.927Z,100.00
2022-09-28T22:53:40.042Z,100.00
2022-09-28T22:55:43.295Z,100.00
2022-09-28T22:57:45.881Z,100.00
2022-09-28T22:59:48.445Z,100.00
2022-09-28T23:01:51.159Z,100.00
2022-09-28T23:03:55.212Z,100.00
2022-09-28T23:05:58.174Z,100.00
2022-09-28T23:08:00.863Z,100.00
2022-09-28T23:10:05.200Z,100.00
2022-09-28T23:12:07.866Z,100.00
2022-09-28T23:14:12.000Z,100.00
2022-09-28T23:16:15.094Z,100.00
2022-09-28T23:18:18.034Z,100.00
2022-09-28T23:20:21.227Z,100.00
2022-09-28T23:22:24.149Z,100.00
2022-09-28T23:24:26.836Z,100.00
2022-09-28T23:26:32.387Z,100.00
2022-09-28T23:28:35.025Z,100.00
2022-09-28T23:30:37.708Z,100.00
2022-09-28T23:32:40.373Z,100.00
2022-09-28T23:34:43.587Z,100.00
2022-09-28T23:36:46.342Z,100.00
2022-09-28T23:38:49.003Z,100.00
2022-09-28T23:40:51.697Z,100.00
2022-09-28T23:42:55.697Z,100.00
2022-09-28T23:44:58.297Z,100.00
2022-09-28T23:47:01.105Z,100.00
2022-09-28T23:49:03.784Z,100.00
2022-09-28T23:51:07.530Z,100.00
2022-09-28T23:53:10.637Z,100.00
2022-09-28T23:55:13.244Z,100.00
2022-09-28T23:57:15.900Z,100.00
2022-09-28T23:59:19.978Z,100.00
